Time;durP1;ratioP1;P1;durP2;ratioP2;P2;SDS_P1;SDS_P2;PMS_P1;PMS_P2;Temp;Humidity;BMP_temperature;BMP_pressure;BME280_temperature;BME280_humidity;BME280_pressure;Samples;Min_cycle;Max_cycle;Signal;HPM_P1;HPM_P2
2022/10/06 00:00:41;;;;;;;3.50;3.20;;;14.60;99.90;;;;;;5014617;28;20979;-70
2022/10/06 00:03:07;;;;;;;3.30;2.47;;;14.60;99.90;;;;;;5005010;28;20498;-70
2022/10/06 00:05:32;;;;;;;4.13;3.10;;;14.60;99.90;;;;;;5006866;28;20183;-70
2022/10/06 00:07:59;;;;;;;2.80;2.50;;;14.60;99.90;;;;;;5010876;28;20208;-70
2022/10/06 00:10:26;;;;;;;4.93;2.50;;;14.60;99.90;;;;;;4999190;28;20205;-70
2022/10/06 00:12:52;;;;;;;3.37;3.10;;;14.50;99.90;;;;;;5009748;28;20788;-70
2022/10/06 00:15:26;;;;;;;3.40;2.50;;;14.60;99.90;;;;;;5005059;28;20412;-70
2022/10/06 00:17:52;;;;;;;3.27;2.97;;;14.70;99.90;;;;;;5013028;28;20546;-70
2022/10/06 00:20:18;;;;;;;2.93;2.70;;;14.80;99.90;;;;;;4998986;28;20458;-70
2022/10/06 00:22:47;;;;;;;3.03;2.73;;;14.80;99.90;;;;;;5010422;28;20408;-70
2022/10/06 00:25:16;;;;;;;3.67;3.30;;;14.70;99.90;;;;;;5004158;28;20424;-70
2022/10/06 00:27:46;;;;;;;2.90;2.50;;;14.70;99.90;;;;;;5002503;28;20411;-70
2022/10/06 00:30:22;;;;;;;3.20;2.50;;;14.70;99.90;;;;;;5011708;28;20411;-70
2022/10/06 00:32:56;;;;;;;3.27;3.07;;;14.70;99.90;;;;;;5000119;28;20932;-70
2022/10/06 00:35:24;;;;;;;3.40;3.10;;;14.70;99.90;;;;;;4996079;28;20423;-70
2022/10/06 00:37:50;;;;;;;3.23;2.90;;;14.70;99.90;;;;;;5001481;28;20780;-70
2022/10/06 00:40:16;;;;;;;4.17;3.17;;;14.60;99.90;;;;;;5011440;28;20455;-70
2022/10/06 00:42:57;;;;;;;2.60;2.40;;;14.70;99.90;;;;;;4999992;28;20409;-70
2022/10/06 00:45:35;;;;;;;3.27;2.97;;;14.80;99.90;;;;;;5004776;28;20419;-70
2022/10/06 00:48:24;;;;;;;3.57;2.83;;;14.90;99.90;;;;;;5010570;28;20406;-70
2022/10/06 00:50:56;;;;;;;3.03;2.67;;;14.90;99.90;;;;;;4986961;28;20431;-70
2022/10/06 00:53:25;;;;;;;4.27;3.23;;;15.00;99.90;;;;;;5004677;28;20446;-70
2022/10/06 00:55:53;;;;;;;2.80;2.60;;;15.00;99.90;;;;;;5008796;28;20813;-70
2022/10/06 00:58:19;;;;;;;2.90;2.70;;;15.00;99.90;;;;;;4998199;28;20490;-70
2022/10/06 01:00:46;;;;;;;4.13;3.00;;;15.10;99.90;;;;;;5008560;28;20465;-70
2022/10/06 01:03:20;;;;;;;3.20;2.90;;;15.20;99.90;;;;;;5000293;28;20436;-70
2022/10/06 01:05:48;;;;;;;3.30;3.00;;;15.30;99.90;;;;;;5009102;28;20913;-70
2022/10/06 01:08:15;;;;;;;3.80;2.93;;;15.30;99.90;;;;;;4998277;28;20408;-70
2022/10/06 01:10:40;;;;;;;3.43;2.67;;;15.30;99.90;;;;;;5010017;28;20423;-70
2022/10/06 01:13:09;;;;;;;3.13;2.83;;;15.40;99.90;;;;;;5002191;28;20437;-70
2022/10/06 01:15:38;;;;;;;3.00;2.80;;;15.40;99.90;;;;;;5013390;28;20188;-70
2022/10/06 01:18:11;;;;;;;2.80;2.60;;;15.40;99.90;;;;;;5011551;28;20462;-70
2022/10/06 01:20:39;;;;;;;2.73;2.53;;;15.50;99.90;;;;;;4983118;28;20452;-70
2022/10/06 01:23:08;;;;;;;2.80;2.60;;;15.50;99.90;;;;;;5006446;28;20520;-70
2022/10/06 01:25:35;;;;;;;2.87;2.67;;;15.50;99.90;;;;;;5005979;28;20495;-70
2022/10/06 01:28:03;;;;;;;3.53;3.10;;;15.40;99.90;;;;;;5000473;28;20464;-70
2022/10/06 01:30:50;;;;;;;3.17;2.70;;;15.50;99.90;;;;;;5007732;28;20449;-70
2022/10/06 01:33:16;;;;;;;2.50;2.30;;;15.50;99.90;;;;;;5003248;28;20921;-70
2022/10/06 01:35:47;;;;;;;2.90;2.60;;;15.50;99.90;;;;;;4994564;28;20511;-70
2022/10/06 01:38:13;;;;;;;2.43;2.23;;;15.50;99.90;;;;;;4992846;28;20181;-70
2022/10/06 01:40:39;;;;;;;2.60;2.47;;;15.50;99.90;;;;;;5006257;28;20463;-70
2022/10/06 01:43:04;;;;;;;3.60;3.07;;;15.50;99.90;;;;;;5005161;28;20200;-70
2022/10/06 01:45:30;;;;;;;3.23;2.60;;;15.50;99.90;;;;;;5048332;22;20236;-72
2022/10/06 01:47:56;;;;;;;2.80;2.60;;;15.40;99.90;;;;;;5039697;28;20208;-72
2022/10/06 01:50:21;;;;;;;5.43;2.60;;;15.40;99.90;;;;;;5037765;28;20180;-72
2022/10/06 01:52:47;;;;;;;2.83;2.63;;;15.40;99.90;;;;;;5041199;28;20478;-72
2022/10/06 01:55:13;;;;;;;2.73;2.20;;;15.40;99.90;;;;;;5040041;28;20188;-71
2022/10/06 01:57:40;;;;;;;3.50;2.63;;;15.30;99.90;;;;;;5040747;28;20195;-72
2022/10/06 02:00:07;;;;;;;3.27;3.07;;;15.30;99.90;;;;;;5050681;28;20446;-72
2022/10/06 02:02:32;;;;;;;3.23;2.37;;;15.30;99.90;;;;;;5045486;28;20500;-72
2022/10/06 02:04:58;;;;;;;6.63;3.07;;;15.20;99.90;;;;;;5042182;28;20478;-72
2022/10/06 02:07:23;;;;;;;3.07;2.40;;;15.20;99.90;;;;;;5052414;28;20245;-71
2022/10/06 02:09:49;;;;;;;3.60;3.07;;;15.10;99.90;;;;;;5035854;28;20258;-72
2022/10/06 02:12:14;;;;;;;3.00;2.70;;;15.10;99.90;;;;;;5047524;28;20177;-72
2022/10/06 02:14:40;;;;;;;5.03;2.50;;;15.10;99.90;;;;;;5039584;28;20203;-72
2022/10/06 02:17:08;;;;;;;4.17;3.23;;;15.10;99.90;;;;;;5040459;28;20191;-72
2022/10/06 02:19:34;;;;;;;7.00;5.50;;;15.10;99.90;;;;;;5047365;28;20454;-72
2022/10/06 02:21:59;;;;;;;2.80;2.60;;;15.00;99.90;;;;;;5034886;28;20478;-72
2022/10/06 02:24:25;;;;;;;3.20;2.33;;;15.00;99.90;;;;;;5046083;28;20750;-72
2022/10/06 02:26:52;;;;;;;2.73;2.50;;;15.00;99.90;;;;;;5033612;28;20165;-73
2022/10/06 02:29:17;;;;;;;3.47;3.00;;;14.90;99.90;;;;;;5037629;28;20231;-72
2022/10/06 02:31:43;;;;;;;3.93;3.37;;;14.90;99.90;;;;;;5038999;28;20448;-73
2022/10/06 02:34:09;;;;;;;2.67;2.47;;;14.90;99.90;;;;;;5048338;28;20243;-73
2022/10/06 02:36:34;;;;;;;2.80;2.60;;;15.00;99.90;;;;;;5040912;28;20944;-72
2022/10/06 02:39:00;;;;;;;3.50;3.20;;;15.00;99.90;;;;;;5041004;28;20168;-72
2022/10/06 02:41:25;;;;;;;3.37;3.07;;;14.90;99.90;;;;;;5045946;28;20211;-73
2022/10/06 02:43:53;;;;;;;2.97;2.77;;;15.00;99.90;;;;;;5035207;28;20191;-72
2022/10/06 02:46:19;;;;;;;3.00;2.77;;;15.00;99.90;;;;;;5046799;28;20177;-72
2022/10/06 02:48:45;;;;;;;6.17;2.80;;;15.00;99.90;;;;;;5040680;28;20410;-72
2022/10/06 02:51:14;;;;;;;3.10;2.73;;;15.00;99.90;;;;;;5039616;28;20493;-71
2022/10/06 02:53:41;;;;;;;4.60;3.33;;;15.00;99.90;;;;;;5047605;28;20309;-71
2022/10/06 02:56:16;;;;;;;3.20;2.80;;;15.00;99.90;;;;;;5035145;28;20501;-71
2022/10/06 02:58:43;;;;;;;4.47;3.00;;;15.00;99.90;;;;;;5043918;28;20417;-72
2022/10/06 03:01:16;;;;;;;3.07;2.87;;;15.00;99.90;;;;;;5033038;28;20459;-71
2022/10/06 03:03:45;;;;;;;3.37;2.83;;;15.10;99.90;;;;;;5046279;28;20726;-71
2022/10/06 03:06:30;;;;;;;5.80;3.30;;;15.10;99.90;;;;;;5039885;28;20431;-71
2022/10/06 03:08:57;;;;;;;2.93;2.73;;;15.20;99.90;;;;;;5041269;28;20406;-71
2022/10/06 03:11:26;;;;;;;2.80;2.60;;;15.20;99.90;;;;;;5037424;28;20480;-71
2022/10/06 03:13:52;;;;;;;3.33;3.07;;;15.20;99.90;;;;;;5047763;28;20772;-71
2022/10/06 03:16:23;;;;;;;3.10;2.80;;;15.20;99.90;;;;;;5035971;28;20487;-71
2022/10/06 03:18:50;;;;;;;4.83;3.10;;;15.20;99.90;;;;;;5042096;28;20414;-72
2022/10/06 03:21:20;;;;;;;3.67;2.90;;;15.30;99.90;;;;;;5043910;28;20774;-71
2022/10/06 03:23:47;;;;;;;3.50;3.20;;;15.30;99.90;;;;;;5033661;28;20431;-72
2022/10/06 03:26:14;;;;;;;4.57;3.30;;;15.30;99.90;;;;;;5046564;28;20457;-71
2022/10/06 03:28:40;;;;;;;3.20;2.83;;;15.30;99.90;;;;;;5038913;28;21247;-72
2022/10/06 03:31:06;;;;;;;3.00;2.70;;;15.30;99.90;;;;;;5039682;28;20457;-71
2022/10/06 03:33:33;;;;;;;3.60;3.17;;;15.30;99.90;;;;;;5045881;28;20766;-71
2022/10/06 03:36:08;;;;;;;2.70;2.30;;;15.40;99.90;;;;;;5031681;28;20875;-71
2022/10/06 03:38:34;;;;;;;2.37;2.20;;;15.60;99.90;;;;;;5042251;28;20933;-71
2022/10/06 03:41:05;;;;;;;2.63;2.17;;;15.60;99.90;;;;;;5041468;28;20462;-71
2022/10/06 03:43:31;;;;;;;3.73;2.80;;;15.70;99.90;;;;;;5035633;28;20451;-71
2022/10/06 03:45:59;;;;;;;2.90;2.70;;;15.80;99.90;;;;;;5046935;28;20434;-71
2022/10/06 03:48:26;;;;;;;3.47;2.57;;;15.90;99.90;;;;;;5036539;28;20865;-71
2022/10/06 03:50:56;;;;;;;3.30;2.83;;;15.80;99.90;;;;;;5041270;28;20768;-72
2022/10/06 03:53:24;;;;;;;3.10;2.80;;;15.90;99.90;;;;;;5044405;28;20416;-71
2022/10/06 03:56:05;;;;;;;2.53;2.17;;;15.90;99.90;;;;;;5033899;28;20447;-71
2022/10/06 03:58:33;;;;;;;3.33;2.97;;;15.80;99.90;;;;;;5044118;28;20423;-71
2022/10/06 04:01:01;;;;;;;5.30;2.30;;;15.90;99.90;;;;;;5041046;28;21099;-71
2022/10/06 04:03:26;;;;;;;3.70;2.87;;;15.90;99.90;;;;;;5036248;28;20403;-71
2022/10/06 04:05:57;;;;;;;2.73;2.53;;;15.90;99.90;;;;;;5046925;28;20413;-71
2022/10/06 04:08:24;;;;;;;4.20;2.67;;;15.90;99.90;;;;;;5036235;28;20165;-71
2022/10/06 04:10:50;;;;;;;2.83;2.10;;;15.90;99.90;;;;;;5041438;28;20420;-72
2022/10/06 04:13:17;;;;;;;2.63;1.80;;;15.90;99.90;;;;;;5043226;28;20414;-72
2022/10/06 04:15:43;;;;;;;2.73;2.10;;;16.00;99.90;;;;;;5050164;28;20431;-72
2022/10/06 04:18:10;;;;;;;2.30;2.10;;;16.00;99.90;;;;;;5034171;28;20738;-71
2022/10/06 04:20:35;;;;;;;3.53;2.50;;;16.00;99.90;;;;;;5043081;28;20807;-72
2022/10/06 04:23:01;;;;;;;2.00;1.90;;;16.00;99.90;;;;;;5041492;28;20552;-71
2022/10/06 04:25:26;;;;;;;4.30;2.10;;;16.00;99.90;;;;;;5035982;28;20191;-72
2022/10/06 04:27:52;;;;;;;2.77;1.97;;;16.00;99.90;;;;;;5046892;28;20287;-71
2022/10/06 04:30:17;;;;;;;1.87;1.67;;;16.00;99.90;;;;;;5035257;28;20169;-71
2022/10/06 04:32:44;;;;;;;1.40;1.30;;;16.00;99.90;;;;;;5042131;28;20168;-71
2022/10/06 04:35:10;;;;;;;1.77;1.20;;;15.90;99.90;;;;;;5042566;28;20292;-71
2022/10/06 04:37:36;;;;;;;1.83;1.27;;;15.90;99.90;;;;;;5045174;28;20465;-71
2022/10/06 04:40:02;;;;;;;1.50;1.37;;;15.90;99.90;;;;;;5041269;28;21078;-71
2022/10/06 04:42:28;;;;;;;1.17;0.90;;;15.90;99.90;;;;;;5047860;28;20238;-71
2022/10/06 04:44:54;;;;;;;1.27;1.07;;;15.80;99.90;;;;;;5043323;28;20262;-72
2022/10/06 04:47:20;;;;;;;1.30;1.00;;;15.90;99.90;;;;;;5040625;28;20420;-71
2022/10/06 04:49:45;;;;;;;1.07;0.97;;;15.90;99.90;;;;;;5041321;28;20989;-71
2022/10/06 04:52:11;;;;;;;3.13;0.90;;;16.00;99.90;;;;;;5049890;28;20178;-71
2022/10/06 04:54:36;;;;;;;2.60;1.07;;;16.00;99.90;;;;;;5040898;28;20197;-70
2022/10/06 04:57:02;;;;;;;0.90;0.90;;;15.90;99.90;;;;;;5042805;28;20184;-73
2022/10/06 05:02:12;;;;;;;1.20;1.00;;;15.90;99.90;;;;;;5022223;28;20449;-72
2022/10/06 05:04:38;;;;;;;0.93;0.93;;;15.90;99.90;;;;;;5045670;28;20753;-71
2022/10/06 05:07:04;;;;;;;0.90;0.90;;;15.90;99.90;;;;;;5044470;28;20166;-72
2022/10/06 05:09:30;;;;;;;1.97;1.10;;;15.80;99.90;;;;;;5038620;28;20491;-71
2022/10/06 05:11:55;;;;;;;2.70;1.37;;;15.80;99.90;;;;;;5049740;28;20916;-71
2022/10/06 05:14:21;;;;;;;1.07;0.90;;;15.80;99.90;;;;;;5031907;28;20214;-71
2022/10/06 05:16:47;;;;;;;1.00;0.80;;;15.80;99.90;;;;;;5044838;28;20182;-71
2022/10/06 05:19:12;;;;;;;1.00;0.90;;;15.80;99.90;;;;;;5053204;28;20436;-71
2022/10/06 05:21:38;;;;;;;1.20;1.10;;;15.80;99.90;;;;;;5039085;28;20179;-71
2022/10/06 05:24:03;;;;;;;2.53;1.10;;;15.80;99.90;;;;;;5051227;28;20185;-69
2022/10/06 05:26:31;;;;;;;3.40;1.47;;;15.70;99.90;;;;;;5039325;28;20171;-71
2022/10/06 05:28:57;;;;;;;1.50;0.90;;;15.70;99.90;;;;;;5042990;28;20299;-73
2022/10/06 05:31:27;;;;;;;1.23;0.90;;;15.70;99.90;;;;;;5036691;28;20507;-73
2022/10/06 05:33:54;;;;;;;1.23;0.90;;;15.60;99.90;;;;;;5035809;28;20518;-73
2022/10/06 05:36:22;;;;;;;1.90;0.90;;;15.60;99.90;;;;;;5037982;28;20412;-72
2022/10/06 05:38:48;;;;;;;1.20;0.93;;;15.60;99.90;;;;;;5043832;28;20478;-73
2022/10/06 05:41:22;;;;;;;0.83;0.73;;;15.50;99.90;;;;;;5045131;28;20450;-72
2022/10/06 05:43:49;;;;;;;0.93;0.57;;;15.50;99.90;;;;;;5045909;28;20190;-72
2022/10/06 05:46:19;;;;;;;0.80;0.80;;;15.40;99.90;;;;;;5033913;28;20488;-73
2022/10/06 05:48:47;;;;;;;1.63;1.20;;;15.40;99.90;;;;;;5040481;28;20468;-72
2022/10/06 05:51:13;;;;;;;1.67;1.10;;;15.30;99.90;;;;;;5040189;28;20496;-72
2022/10/06 05:53:39;;;;;;;1.70;0.70;;;15.30;99.90;;;;;;5048388;28;20437;-71
2022/10/06 05:56:13;;;;;;;1.13;0.90;;;15.30;99.90;;;;;;5035765;28;20441;-72
2022/10/06 05:58:42;;;;;;;1.87;1.60;;;15.20;99.90;;;;;;5044854;28;20285;-72
2022/10/06 06:01:16;;;;;;;0.70;0.70;;;15.20;99.90;;;;;;5044115;28;20807;-72
2022/10/06 06:03:46;;;;;;;0.93;0.80;;;15.10;99.90;;;;;;5035964;28;20475;-72
2022/10/06 06:06:16;;;;;;;4.90;1.40;;;15.00;99.90;;;;;;5035489;28;20411;-73
2022/10/06 06:08:42;;;;;;;2.90;1.07;;;15.00;99.90;;;;;;5043438;28;20427;-72
2022/10/06 06:11:08;;;;;;;1.63;1.20;;;15.00;99.90;;;;;;5034755;28;20506;-72
2022/10/06 06:13:35;;;;;;;1.97;1.57;;;15.00;99.90;;;;;;5038793;28;20407;-72
2022/10/06 06:16:05;;;;;;;2.00;1.23;;;15.00;99.90;;;;;;5043438;28;20451;-72
2022/10/06 06:18:33;;;;;;;1.47;1.10;;;15.00;99.90;;;;;;5052250;28;20413;-72
2022/10/06 06:21:01;;;;;;;1.77;0.97;;;15.20;99.90;;;;;;5041789;28;20495;-72
2022/10/06 06:23:33;;;;;;;1.33;1.17;;;15.40;99.90;;;;;;5042920;28;20419;-73
2022/10/06 06:26:00;;;;;;;1.53;1.00;;;15.40;99.90;;;;;;5050035;28;20485;-72
2022/10/06 06:28:29;;;;;;;2.60;0.70;;;15.70;99.90;;;;;;5035687;28;20486;-72
2022/10/06 06:31:07;;;;;;;1.63;0.83;;;16.30;99.90;;;;;;5034890;28;20420;-72
2022/10/06 06:33:34;;;;;;;2.50;0.80;;;16.70;99.90;;;;;;5047036;28;20505;-72
2022/10/06 06:36:02;;;;;;;0.77;0.77;;;16.50;99.90;;;;;;5035208;28;20468;-72
2022/10/06 06:38:28;;;;;;;1.70;0.80;;;16.90;99.90;;;;;;5045704;28;20527;-72
2022/10/06 06:40:54;;;;;;;1.13;1.00;;;16.90;99.90;;;;;;5033773;28;20466;-73
2022/10/06 06:43:19;;;;;;;3.30;1.20;;;16.90;99.90;;;;;;5042415;28;20419;-72
2022/10/06 06:45:45;;;;;;;2.10;0.80;;;17.30;99.90;;;;;;5034563;28;20214;-73
2022/10/06 06:48:14;;;;;;;2.50;1.30;;;17.00;99.90;;;;;;5051485;28;20626;-72
2022/10/06 06:50:44;;;;;;;1.93;0.90;;;17.60;99.90;;;;;;5043722;28;20178;-72
2022/10/06 06:53:13;;;;;;;1.67;0.80;;;16.90;99.90;;;;;;5043673;28;20920;-72
2022/10/06 06:55:49;;;;;;;3.03;0.80;;;16.70;99.90;;;;;;5035352;28;20539;-72
2022/10/06 06:58:16;;;;;;;1.30;1.00;;;16.70;99.90;;;;;;5021366;28;20421;-72
2022/10/06 07:00:41;;;;;;;2.00;1.10;;;16.50;99.90;;;;;;5043303;28;20498;-72
2022/10/06 07:03:12;;;;;;;0.90;0.80;;;16.70;99.90;;;;;;5042963;28;20434;-72
2022/10/06 07:05:38;;;;;;;4.73;2.90;;;16.40;99.90;;;;;;5035496;28;20196;-72
2022/10/06 07:08:06;;;;;;;3.50;2.10;;;16.90;99.90;;;;;;5048056;28;20817;-71
2022/10/06 07:10:34;;;;;;;4.70;3.47;;;16.60;99.90;;;;;;5038332;28;20426;-71
2022/10/06 07:13:00;;;;;;;1.70;1.00;;;16.40;99.90;;;;;;5040707;28;20407;-71
2022/10/06 07:26:22;;;;;;;1.27;0.80;;;17.90;99.90;;;;;;5022945;28;20414;-74
2022/10/06 07:28:48;;;;;;;1.20;0.90;;;18.50;99.90;;;;;;5041401;28;20911;-73
2022/10/06 07:31:16;;;;;;;4.30;1.90;;;17.40;99.90;;;;;;5043601;28;20248;-74
2022/10/06 07:33:42;;;;;;;3.17;1.07;;;17.80;99.90;;;;;;5047687;28;20419;-73
2022/10/06 07:36:08;;;;;;;1.20;0.80;;;17.50;99.90;;;;;;5031695;28;20423;-74
2022/10/06 07:38:35;;;;;;;2.80;0.90;;;17.30;99.90;;;;;;5033434;28;20207;-73
2022/10/06 07:41:00;;;;;;;1.87;1.00;;;17.10;99.90;;;;;;5031368;28;20459;-74
2022/10/06 07:43:26;;;;;;;2.70;1.00;;;18.10;99.90;;;;;;5038336;28;20428;-73
2022/10/06 07:45:51;;;;;;;3.80;1.63;;;17.70;99.90;;;;;;5042167;28;20902;-73
2022/10/06 07:48:22;;;;;;;2.83;1.90;;;17.80;99.90;;;;;;5049921;28;20597;-71
2022/10/06 07:50:50;;;;;;;1.37;0.83;;;17.60;99.90;;;;;;5035029;28;20229;-73
2022/10/06 07:53:17;;;;;;;3.17;0.90;;;17.40;99.90;;;;;;5038017;28;20422;-73
2022/10/06 07:55:45;;;;;;;1.20;0.80;;;16.70;99.90;;;;;;5038805;28;20441;-73
2022/10/06 07:58:22;;;;;;;2.47;1.10;;;16.70;99.90;;;;;;5043245;28;20410;-73
2022/10/06 08:00:48;;;;;;;1.40;1.30;;;16.90;99.90;;;;;;5039001;28;20517;-73
2022/10/06 08:03:18;;;;;;;0.93;0.80;;;16.50;99.90;;;;;;5046270;28;20944;-73
2022/10/06 08:05:55;;;;;;;5.47;1.20;;;16.30;99.90;;;;;;5034565;28;20421;-73
2022/10/06 08:08:21;;;;;;;2.30;1.00;;;16.40;99.90;;;;;;5043235;28;21018;-73
2022/10/06 08:10:55;;;;;;;1.50;1.07;;;16.40;99.90;;;;;;5040607;28;20508;-73
2022/10/06 08:13:21;;;;;;;4.17;1.17;;;16.60;99.90;;;;;;5050792;28;20656;-73
2022/10/06 08:15:49;;;;;;;1.00;0.80;;;16.70;99.90;;;;;;5051763;28;20597;-73
2022/10/06 08:18:15;;;;;;;2.33;0.90;;;16.70;99.90;;;;;;5036197;28;20485;-73
2022/10/06 08:20:40;;;;;;;4.80;1.70;;;16.90;99.90;;;;;;5045411;28;20471;-73
2022/10/06 08:23:07;;;;;;;1.50;0.80;;;17.00;99.90;;;;;;5040817;28;20419;-74
2022/10/06 08:25:35;;;;;;;1.70;0.93;;;18.00;99.90;;;;;;5051063;28;20553;-73
2022/10/06 08:28:00;;;;;;;1.70;0.80;;;17.10;99.90;;;;;;5039446;28;20409;-74
2022/10/06 08:30:26;;;;;;;2.40;0.83;;;16.60;99.90;;;;;;5043147;28;20500;-74
2022/10/06 08:32:51;;;;;;;1.33;0.83;;;17.10;99.90;;;;;;5042726;28;20169;-74
2022/10/06 08:35:17;;;;;;;1.87;1.67;;;17.50;99.90;;;;;;5043381;28;20286;-73
2022/10/06 08:37:42;;;;;;;3.87;1.30;;;18.00;99.90;;;;;;5051063;28;20174;-74
2022/10/06 08:40:13;;;;;;;4.50;1.23;;;18.30;99.90;;;;;;5040831;28;20229;-74
2022/10/06 08:42:47;;;;;;;2.93;1.20;;;18.50;99.90;;;;;;5046491;28;20206;-73
2022/10/06 08:45:20;;;;;;;4.10;1.40;;;18.20;99.90;;;;;;5047758;28;20450;-74
2022/10/06 08:48:01;;;;;;;1.10;0.80;;;18.50;99.90;;;;;;5042308;28;20419;-74
2022/10/06 08:50:31;;;;;;;5.40;1.20;;;18.90;99.90;;;;;;5031883;28;20450;-74
2022/10/06 08:53:12;;;;;;;1.70;1.13;;;19.70;99.90;;;;;;5041326;28;20471;-71
2022/10/06 08:55:46;;;;;;;9.60;1.30;;;19.80;99.90;;;;;;5050586;28;20486;-74
2022/10/06 08:58:33;;;;;;;1.83;0.90;;;19.30;99.90;;;;;;5041019;28;20511;-74
2022/10/06 09:01:25;;;;;;;2.20;0.90;;;18.60;99.90;;;;;;5041591;28;20534;-74
2022/10/06 09:03:55;;;;;;;4.40;2.27;;;17.90;99.90;;;;;;5033315;28;20924;-74
2022/10/06 09:06:34;;;;;;;3.10;1.10;;;17.80;99.90;;;;;;5046154;28;20404;-73
2022/10/06 09:09:12;;;;;;;1.37;1.13;;;18.90;99.90;;;;;;5041910;28;20829;-73
2022/10/06 09:11:50;;;;;;;2.73;1.20;;;18.30;99.90;;;;;;5050757;28;20495;-73
2022/10/06 09:14:32;;;;;;;3.10;1.00;;;19.20;99.90;;;;;;5045651;28;20436;-72
2022/10/06 09:17:03;;;;;;;2.70;1.23;;;19.10;99.90;;;;;;5036202;28;20401;-74
2022/10/06 09:20:08;;;;;;;2.30;1.10;;;18.30;99.90;;;;;;5047265;28;20933;-73
2022/10/06 09:22:34;;;;;;;2.50;1.50;;;18.00;99.90;;;;;;5027255;28;20420;-73
2022/10/06 09:25:15;;;;;;;3.80;1.07;;;17.60;99.90;;;;;;5046605;28;20932;-73
2022/10/06 09:27:42;;;;;;;3.70;1.10;;;17.10;99.90;;;;;;5038389;28;20429;-73
2022/10/06 09:30:12;;;;;;;1.63;1.13;;;16.90;99.90;;;;;;5042480;28;20418;-73
2022/10/06 09:32:43;;;;;;;1.87;1.03;;;16.50;99.90;;;;;;5043730;28;20460;-76
2022/10/06 09:35:18;;;;;;;1.37;0.90;;;16.20;99.90;;;;;;5042616;28;20481;-73
2022/10/06 09:37:55;;;;;;;4.30;1.13;;;16.30;99.90;;;;;;5040659;28;20428;-73
2022/10/06 09:40:50;;;;;;;2.47;1.27;;;16.20;99.90;;;;;;5035996;28;20499;-74
2022/10/06 09:43:27;;;;;;;2.37;1.00;;;16.40;99.90;;;;;;5047071;28;20417;-74
2022/10/06 09:45:54;;;;;;;2.00;0.90;;;16.80;99.90;;;;;;5025995;28;20433;-74
2022/10/06 09:48:23;;;;;;;1.50;0.90;;;16.90;99.90;;;;;;5054298;28;20421;-75
2022/10/06 09:51:13;;;;;;;1.47;1.00;;;17.00;99.90;;;;;;5054051;28;20405;-74
2022/10/06 09:54:01;;;;;;;2.00;1.10;;;17.20;99.90;;;;;;5049036;28;20414;-73
2022/10/06 09:56:27;;;;;;;2.70;1.10;;;17.30;99.90;;;;;;5044317;28;20466;-73
2022/10/06 09:58:57;;;;;;;1.47;1.00;;;17.40;99.90;;;;;;5034849;28;20446;-73
2022/10/06 10:01:25;;;;;;;12.17;2.37;;;17.00;99.90;;;;;;5033884;28;20627;-73
2022/10/06 10:03:56;;;;;;;2.63;0.83;;;17.00;99.90;;;;;;5036585;28;20425;-73
2022/10/06 10:06:28;;;;;;;2.40;0.90;;;17.20;99.90;;;;;;5052835;28;20455;-73
2022/10/06 10:09:28;;;;;;;1.87;0.97;;;17.20;99.90;;;;;;5040644;28;20475;-75
2022/10/06 10:12:23;;;;;;;2.17;1.00;;;17.30;99.90;;;;;;5032757;28;20402;-74
2022/10/06 10:14:52;;;;;;;3.23;0.93;;;17.00;99.90;;;;;;5045878;28;20848;-73
2022/10/06 10:17:21;;;;;;;1.77;0.70;;;17.00;99.90;;;;;;5037516;28;20916;-73
2022/10/06 10:19:53;;;;;;;2.20;1.23;;;17.10;99.90;;;;;;5044737;28;20511;-73
2022/10/06 10:22:34;;;;;;;2.70;1.17;;;17.30;99.90;;;;;;5039674;28;20414;-73
2022/10/06 10:25:25;;;;;;;3.00;1.00;;;17.20;99.90;;;;;;5050935;28;20432;-72
2022/10/06 10:28:03;;;;;;;3.67;1.40;;;17.10;99.90;;;;;;5033324;28;20811;-72
2022/10/06 10:30:35;;;;;;;3.00;1.20;;;17.40;99.90;;;;;;5039967;28;20902;-73
2022/10/06 10:33:10;;;;;;;3.30;1.20;;;17.00;99.90;;;;;;5044064;28;20445;-73
2022/10/06 10:35:40;;;;;;;1.63;0.97;;;17.10;99.90;;;;;;5044598;28;20435;-75
2022/10/06 10:38:39;;;;;;;4.70;0.87;;;17.20;99.90;;;;;;5046781;28;20769;-75
2022/10/06 10:41:14;;;;;;;5.07;0.90;;;17.30;99.90;;;;;;5044710;28;20510;-74
2022/10/06 10:43:48;;;;;;;0.97;0.93;;;17.30;99.90;;;;;;5039524;28;20769;-74
2022/10/06 10:46:31;;;;;;;3.13;1.10;;;17.40;99.90;;;;;;5033757;28;20403;-73
2022/10/06 10:49:11;;;;;;;1.60;1.07;;;17.60;99.90;;;;;;5035361;28;20412;-74
2022/10/06 10:51:44;;;;;;;3.10;1.10;;;17.60;99.90;;;;;;5044813;28;20691;-74
2022/10/06 10:54:14;;;;;;;1.47;1.00;;;17.70;99.90;;;;;;5030431;28;20488;-75
2022/10/06 10:56:42;;;;;;;2.60;1.00;;;17.60;99.90;;;;;;5032896;28;20911;-74
2022/10/06 10:59:14;;;;;;;2.50;1.20;;;17.60;99.90;;;;;;5037682;28;20398;-74
2022/10/06 11:01:46;;;;;;;0.90;0.90;;;17.90;99.90;;;;;;5044826;28;20407;-75
2022/10/06 11:04:13;;;;;;;1.40;1.27;;;17.80;99.90;;;;;;5038399;28;20968;-74
2022/10/06 11:06:55;;;;;;;2.40;1.20;;;17.90;99.90;;;;;;5044772;28;20421;-74
2022/10/06 11:09:43;;;;;;;2.00;1.47;;;18.00;99.90;;;;;;5036835;28;20441;-74
2022/10/06 11:12:47;;;;;;;5.60;1.43;;;18.00;99.90;;;;;;5050146;28;20402;-74
2022/10/06 11:15:22;;;;;;;3.87;0.97;;;18.10;99.90;;;;;;5031988;28;20851;-74
2022/10/06 11:17:51;;;;;;;1.07;0.97;;;17.90;99.90;;;;;;5035706;28;20409;-73
2022/10/06 11:20:28;;;;;;;2.13;1.20;;;17.60;99.90;;;;;;5037543;28;20519;-75
2022/10/06 11:23:17;;;;;;;2.87;1.20;;;17.60;99.90;;;;;;5046577;28;20395;-74
2022/10/06 11:25:52;;;;;;;4.90;1.00;;;17.60;99.90;;;;;;5039737;28;20504;-74
2022/10/06 11:28:25;;;;;;;3.23;1.10;;;17.70;99.90;;;;;;5031811;28;20397;-74
2022/10/06 11:31:00;;;;;;;1.67;1.10;;;17.90;99.90;;;;;;5043796;28;20413;-74
2022/10/06 11:33:45;;;;;;;6.10;1.67;;;17.80;99.90;;;;;;5034802;28;20443;-74
2022/10/06 11:36:24;;;;;;;4.20;1.53;;;18.20;99.90;;;;;;5041408;28;20508;-75
2022/10/06 11:39:01;;;;;;;2.03;1.33;;;18.30;99.90;;;;;;5036089;28;20417;-74
2022/10/06 11:41:33;;;;;;;3.20;1.47;;;18.30;99.90;;;;;;5032489;28;20613;-74
2022/10/06 11:44:18;;;;;;;1.73;1.27;;;18.00;99.90;;;;;;5035771;28;20864;-74
2022/10/06 11:47:07;;;;;;;3.90;1.27;;;17.80;99.90;;;;;;5048833;28;20420;-75
2022/10/06 11:49:52;;;;;;;3.67;0.80;;;17.70;99.90;;;;;;5033562;28;20408;-74
2022/10/06 11:52:17;;;;;;;2.77;0.83;;;17.80;99.90;;;;;;5035901;28;21098;-74
2022/10/06 11:54:43;;;;;;;3.30;1.30;;;17.90;99.90;;;;;;5041990;28;20931;-74
2022/10/06 11:57:21;;;;;;;3.30;1.00;;;17.90;99.90;;;;;;5036562;28;20171;-74
2022/10/06 12:00:05;;;;;;;0.90;0.80;;;17.90;99.90;;;;;;5043223;28;20248;-74
2022/10/06 12:02:31;;;;;;;2.97;0.93;;;17.60;99.90;;;;;;5041622;28;20406;-74
2022/10/06 12:05:08;;;;;;;1.50;0.93;;;17.70;99.90;;;;;;5043568;28;20564;-74
2022/10/06 12:07:53;;;;;;;2.60;0.87;;;17.80;99.90;;;;;;5046726;28;20185;-74
2022/10/06 12:10:27;;;;;;;5.70;1.17;;;17.90;99.90;;;;;;5047359;28;20986;-75
2022/10/06 12:13:20;;;;;;;1.73;0.97;;;17.90;99.90;;;;;;5050920;28;20407;-75
2022/10/06 12:16:10;;;;;;;4.67;1.10;;;18.00;99.90;;;;;;5044066;28;20456;-75
2022/10/06 12:18:47;;;;;;;2.43;1.00;;;18.20;99.90;;;;;;5045471;28;20431;-74
2022/10/06 12:21:34;;;;;;;2.20;1.70;;;18.00;99.90;;;;;;5030693;28;20537;-74
2022/10/06 12:24:18;;;;;;;2.20;1.20;;;18.30;99.90;;;;;;5035760;28;20432;-74
2022/10/06 12:27:03;;;;;;;1.83;0.87;;;18.50;99.90;;;;;;5039386;28;20440;-74
2022/10/06 12:29:47;;;;;;;2.90;1.30;;;18.50;99.90;;;;;;5028382;28;20921;-74
2022/10/06 12:32:21;;;;;;;5.33;1.13;;;18.70;99.90;;;;;;5030240;28;20391;-75
2022/10/06 12:35:16;;;;;;;2.53;1.00;;;18.50;99.90;;;;;;5030601;28;20514;-75
2022/10/06 12:37:51;;;;;;;2.20;0.90;;;18.40;99.90;;;;;;5023217;28;20446;-75
2022/10/06 12:40:43;;;;;;;7.67;2.17;;;18.20;99.90;;;;;;5037506;28;20453;-75
2022/10/06 12:43:11;;;;;;;5.00;1.03;;;17.90;99.90;;;;;;5034086;28;20502;-74
2022/10/06 12:45:58;;;;;;;1.30;0.90;;;18.00;99.90;;;;;;5032928;28;20807;-74
2022/10/06 12:48:35;;;;;;;3.47;0.97;;;18.10;99.90;;;;;;5041333;28;20403;-74
2022/10/06 12:51:24;;;;;;;5.60;1.00;;;18.00;99.90;;;;;;5037459;28;20760;-73
2022/10/06 12:54:10;;;;;;;1.67;1.37;;;17.60;99.90;;;;;;5017400;28;20435;-74
2022/10/06 12:56:38;;;;;;;1.90;1.00;;;17.70;99.90;;;;;;5041594;28;20449;-73
2022/10/06 12:59:24;;;;;;;1.73;0.90;;;18.10;99.90;;;;;;5048159;28;20407;-74
2022/10/06 13:01:56;;;;;;;2.03;0.90;;;18.30;99.90;;;;;;5033347;28;20778;-74
2022/10/06 13:04:51;;;;;;;1.60;0.70;;;18.40;99.90;;;;;;5046580;28;20418;-74
2022/10/06 13:07:21;;;;;;;1.80;1.17;;;18.20;99.90;;;;;;5042161;28;20417;-74
2022/10/06 13:09:51;;;;;;;1.67;0.80;;;18.40;99.90;;;;;;5046026;28;20398;-74
2022/10/06 13:12:36;;;;;;;2.80;0.80;;;18.30;99.90;;;;;;5034136;28;20586;-74
2022/10/06 13:15:28;;;;;;;4.23;1.40;;;18.10;99.90;;;;;;5047388;28;20488;-74
2022/10/06 13:17:59;;;;;;;2.60;1.00;;;18.00;99.90;;;;;;5025928;28;20406;-74
2022/10/06 13:20:41;;;;;;;3.23;0.80;;;17.80;99.90;;;;;;5045478;28;20455;-74
2022/10/06 13:23:27;;;;;;;2.03;1.00;;;17.90;99.90;;;;;;5043284;28;20407;-74